Time;durP1;ratioP1;P1;durP2;ratioP2;P2;SDS_P1;SDS_P2;PMS_P1;PMS_P2;Temp;Humidity;BMP_temperature;BMP_pressure;BME280_temperature;BME280_humidity;BME280_pressure;Samples;Min_cycle;Max_cycle;Signal;HPM_P1;HPM_P2
2022/04/25 00:01:49;;;;;;;17.70;9.85;;;;;;;14.04;55.41;100273.41;4969478;28;20049;-65
2022/04/25 00:04:17;;;;;;;16.95;8.93;;;;;;;14.15;55.68;100263.47;4960050;28;20070;-65
2022/04/25 00:06:44;;;;;;;13.48;8.60;;;;;;;14.05;55.24;100266.72;4978315;28;20050;-66
2022/04/25 00:09:11;;;;;;;17.35;9.05;;;;;;;13.71;56.42;100262.47;4959237;28;20047;-66
2022/04/25 00:11:39;;;;;;;18.00;8.60;;;;;;;13.68;56.65;100263.16;4956415;29;20525;-66
2022/04/25 00:14:07;;;;;;;17.27;8.95;;;;;;;13.84;56.20;100264.09;4975367;28;20065;-67
2022/04/25 00:16:34;;;;;;;17.52;9.20;;;;;;;13.99;55.94;100257.84;4974496;28;20047;-67
2022/04/25 00:19:02;;;;;;;16.63;8.80;;;;;;;13.97;56.06;100262.09;4966687;28;20055;-66
2022/04/25 00:21:29;;;;;;;14.18;8.88;;;;;;;13.92;56.34;100259.56;4960014;28;20057;-66
2022/04/25 00:23:57;;;;;;;16.50;9.43;;;;;;;13.91;56.97;100255.19;4960736;28;20054;-65
2022/04/25 00:26:25;;;;;;;18.65;10.00;;;;;;;13.58;57.93;100261.63;4977345;28;20061;-67
2022/04/25 00:28:52;;;;;;;17.25;10.05;;;;;;;13.38;58.70;100254.25;4959812;28;20143;-66
2022/04/25 00:31:20;;;;;;;15.43;9.35;;;;;;;13.42;58.82;100257.13;4960561;28;20157;-68
2022/04/25 00:33:47;;;;;;;15.63;9.73;;;;;;;13.42;58.92;100257.13;4975998;28;20165;-67
2022/04/25 00:36:14;;;;;;;17.85;10.63;;;;;;;13.69;58.13;100253.69;4951239;28;20046;-67
2022/04/25 00:38:42;;;;;;;20.20;10.50;;;;;;;13.58;58.26;100255.31;4940891;28;20051;-68
2022/04/25 00:41:09;;;;;;;20.65;10.50;;;;;;;13.68;58.41;100259.56;4959083;28;20051;-67
2022/04/25 00:43:36;;;;;;;19.80;9.50;;;;;;;13.72;58.49;100261.28;4960322;28;20054;-67
2022/04/25 00:46:04;;;;;;;18.58;9.88;;;;;;;13.58;58.44;100269.94;4958471;28;20058;-67
2022/04/25 00:48:31;;;;;;;19.95;9.43;;;;;;;13.25;59.49;100265.63;4958777;28;20131;-67
2022/04/25 00:50:59;;;;;;;18.05;9.35;;;;;;;13.21;59.81;100261.91;4958218;28;20047;-67
2022/04/25 00:53:26;;;;;;;15.18;8.80;;;;;;;13.46;59.16;100263.56;4971378;28;20043;-67
2022/04/25 00:55:54;;;;;;;17.85;9.35;;;;;;;13.32;58.91;100269.44;4957292;28;20057;-67
2022/04/25 00:58:21;;;;;;;16.45;9.45;;;;;;;13.31;59.08;100265.06;4976383;28;20062;-68
2022/04/25 01:00:49;;;;;;;14.00;8.30;;;;;;;13.24;59.16;100267.56;4943422;28;20422;-67
2022/04/25 01:03:17;;;;;;;17.58;9.63;;;;;;;13.28;59.35;100273.25;4974893;28;20084;-67
2022/04/25 01:05:45;;;;;;;21.80;10.18;;;;;;;13.38;59.00;100270.84;4975963;28;20387;-67
2022/04/25 01:08:12;;;;;;;15.25;8.43;;;;;;;13.47;59.12;100277.09;4976033;28;20046;-67
2022/04/25 01:10:39;;;;;;;15.13;8.73;;;;;;;13.12;59.73;100280.56;4976545;28;20057;-66
2022/04/25 01:13:07;;;;;;;14.30;8.88;;;;;;;13.05;60.25;100280.31;4975411;28;20074;-65
2022/04/25 01:15:34;;;;;;;24.58;9.70;;;;;;;12.85;60.21;100279.16;4972791;28;20638;-66
2022/04/25 01:18:02;;;;;;;21.45;8.90;;;;;;;12.74;60.50;100268.84;4957307;28;20055;-65
2022/04/25 01:20:29;;;;;;;17.90;8.27;;;;;;;12.85;59.97;100268.09;4959628;28;20051;-66
2022/04/25 01:28:38;;;;;;;16.73;8.93;;;;;;;13.15;58.58;100263.28;4960502;28;20057;-67
2022/04/25 01:31:05;;;;;;;19.27;9.15;;;;;;;12.74;59.70;100261.38;4974537;28;20061;-67
2022/04/25 01:33:33;;;;;;;18.42;8.98;;;;;;;12.71;60.17;100270.34;4974679;28;20070;-67
2022/04/25 01:36:02;;;;;;;17.05;9.98;;;;;;;12.72;60.15;100271.97;4961638;28;20579;-67
2022/04/25 01:38:30;;;;;;;15.05;8.52;;;;;;;13.01;59.28;100257.22;4963231;28;20050;-67
2022/04/25 01:40:57;;;;;;;16.67;8.55;;;;;;;13.18;58.76;100263.41;4976160;28;20054;-66
2022/04/25 01:43:25;;;;;;;20.55;8.68;;;;;;;12.88;59.41;100274.91;4949754;28;20055;-66
2022/04/25 01:45:52;;;;;;;16.35;8.80;;;;;;;12.78;59.75;100267.84;4974367;28;20046;-67
2022/04/25 01:48:21;;;;;;;20.00;9.15;;;;;;;12.62;60.14;100277.09;4974064;28;20407;-67
2022/04/25 01:50:49;;;;;;;15.48;8.52;;;;;;;12.54;60.24;100275.19;4974190;28;20042;-67
2022/04/25 01:53:17;;;;;;;18.85;10.10;;;;;;;12.56;60.08;100272.91;4967661;28;20210;-64
2022/04/25 01:55:44;;;;;;;22.58;8.77;;;;;;;12.47;60.63;100284.03;4974656;28;20047;-66
2022/04/25 01:58:12;;;;;;;17.77;9.13;;;;;;;12.41;61.06;100296.44;4974247;28;20062;-65
2022/04/25 02:00:39;;;;;;;19.67;8.93;;;;;;;12.16;61.88;100289.94;4973746;28;20042;-66
2022/04/25 02:03:07;;;;;;;17.10;8.80;;;;;;;12.27;61.79;100288.38;4974402;28;20051;-65
2022/04/25 02:05:34;;;;;;;16.42;8.52;;;;;;;12.40;61.63;100290.09;4974986;28;20047;-68
2022/04/25 02:08:02;;;;;;;17.50;9.07;;;;;;;12.19;61.98;100288.44;4974704;28;20062;-67
2022/04/25 02:10:30;;;;;;;17.83;9.80;;;;;;;12.01;63.04;100287.72;4954506;28;20073;-67
2022/04/25 02:12:57;;;;;;;20.15;8.88;;;;;;;12.22;62.52;100301.59;4970292;28;20055;-65
2022/04/25 02:15:25;;;;;;;21.05;9.40;;;;;;;12.24;62.31;100299.28;4956239;28;20077;-66
2022/04/25 02:17:52;;;;;;;25.05;9.32;;;;;;;12.23;62.27;100305.97;4973678;28;20070;-65
2022/04/25 02:20:19;;;;;;;21.15;8.77;;;;;;;12.08;62.59;100303.78;4973981;28;20062;-66
2022/04/25 02:22:48;;;;;;;20.65;9.45;;;;;;;11.93;63.23;100305.16;4955665;28;20212;-65
2022/04/25 02:25:15;;;;;;;20.52;9.38;;;;;;;12.08;62.86;100301.03;4954594;28;20051;-65
2022/04/25 02:27:42;;;;;;;19.35;9.25;;;;;;;12.11;62.92;100301.16;4954273;28;20062;-65
2022/04/25 02:30:10;;;;;;;17.98;9.43;;;;;;;12.43;62.09;100308.75;4973159;28;20054;-65
2022/04/25 02:32:38;;;;;;;21.00;9.77;;;;;;;11.78;63.96;100296.63;4939923;28;20066;-65
2022/04/25 02:35:06;;;;;;;20.30;9.80;;;;;;;11.96;63.65;100303.69;4957013;28;20051;-66
2022/04/25 02:37:33;;;;;;;25.88;9.60;;;;;;;11.93;63.92;100294.13;4974128;28;20570;-67
2022/04/25 02:40:01;;;;;;;17.30;9.52;;;;;;;12.13;63.56;100303.59;4976216;28;20045;-66
2022/04/25 02:42:28;;;;;;;19.98;9.30;;;;;;;11.91;64.26;100312.94;4956694;28;20063;-66
2022/04/25 02:44:55;;;;;;;20.58;9.35;;;;;;;11.92;64.41;100309.06;4974250;28;20405;-67
2022/04/25 02:47:22;;;;;;;25.25;10.70;;;;;;;11.71;65.07;100307.38;4965061;28;162328;-65
2022/04/25 02:49:53;;;;;;;20.15;10.35;;;;;;;11.94;64.70;100303.22;4955558;28;20051;-65
2022/04/25 02:52:20;;;;;;;21.02;9.80;;;;;;;11.46;66.65;100302.69;4977408;28;20043;-67
2022/04/25 02:54:47;;;;;;;19.92;9.65;;;;;;;11.45;66.86;100299.16;4962013;28;20586;-66
2022/04/25 02:57:15;;;;;;;19.05;10.02;;;;;;;11.78;66.03;100307.66;4978671;28;20058;-67
2022/04/25 02:59:42;;;;;;;19.73;9.77;;;;;;;11.53;66.48;100306.59;4979367;28;20065;-67
2022/04/25 03:02:09;;;;;;;24.20;10.00;;;;;;;11.35;67.58;100308.56;4978275;28;20051;-67
2022/04/25 03:04:37;;;;;;;18.80;9.80;;;;;;;11.45;67.69;100310.19;4979114;28;20050;-68
2022/04/25 03:07:04;;;;;;;29.42;11.45;;;;;;;11.22;68.66;100308.78;4978163;28;20046;-67
2022/04/25 03:09:31;;;;;;;25.02;11.07;;;;;;;11.30;68.59;100317.03;4961308;28;20522;-68
2022/04/25 03:11:59;;;;;;;19.70;10.02;;;;;;;11.29;68.61;100312.66;4978971;28;20049;-66
2022/04/25 03:14:26;;;;;;;19.85;10.77;;;;;;;11.16;69.25;100321.91;4981413;28;20051;-66
2022/04/25 03:16:54;;;;;;;23.80;10.82;;;;;;;10.85;70.91;100312.22;4976995;28;20051;-67
2022/04/25 03:19:21;;;;;;;22.35;11.10;;;;;;;11.10;70.56;100311.41;4978147;28;20061;-66
2022/04/25 03:21:50;;;;;;;20.45;10.80;;;;;;;11.26;69.71;100318.81;4978814;28;20059;-66
2022/04/25 03:24:17;;;;;;;21.08;10.88;;;;;;;11.07;70.37;100315.59;4945427;28;20050;-66
2022/04/25 03:26:44;;;;;;;25.42;11.57;;;;;;;11.11;70.68;100304.72;4977351;28;20399;-65
2022/04/25 03:29:13;;;;;;;23.20;11.32;;;;;;;11.14;70.55;100326.16;4977966;28;20691;-65
2022/04/25 03:31:40;;;;;;;24.13;10.98;;;;;;;11.01;71.46;100316.91;4977430;28;20062;-65
2022/04/25 03:34:08;;;;;;;22.88;11.70;;;;;;;10.83;72.18;100326.31;4960835;28;20062;-65
2022/04/25 03:36:35;;;;;;;24.88;11.80;;;;;;;10.99;72.04;100332.16;4978407;28;20047;-65
2022/04/25 03:39:02;;;;;;;23.45;12.45;;;;;;;10.94;72.28;100335.06;4977532;28;20061;-65
2022/04/25 03:41:31;;;;;;;28.83;12.10;;;;;;;10.91;72.49;100322.75;4977935;28;20388;-65
2022/04/25 03:43:58;;;;;;;25.70;12.25;;;;;;;11.11;72.02;100332.31;4959415;28;20050;-64
2022/04/25 03:46:27;;;;;;;26.98;13.05;;;;;;;10.97;72.16;100335.22;4977564;28;20059;-65
2022/04/25 03:48:54;;;;;;;24.33;11.95;;;;;;;11.05;72.04;100325.34;4959843;28;20054;-67
2022/04/25 03:51:22;;;;;;;24.95;12.30;;;;;;;10.83;73.36;100337.34;4960198;28;20073;-67
2022/04/25 03:53:50;;;;;;;25.50;12.75;;;;;;;10.85;73.49;100332.31;4944391;28;20062;-66
2022/04/25 03:59:08;;;;;;;31.55;13.65;;;;;;;10.78;74.24;100334.75;4967501;28;20498;-66
2022/04/25 04:01:36;;;;;;;25.05;13.35;;;;;;;10.88;73.58;100334.44;4962595;28;20074;-68
2022/04/25 04:04:05;;;;;;;23.20;12.43;;;;;;;10.93;73.07;100348.03;4975772;28;20062;-67
2022/04/25 04:06:33;;;;;;;25.08;13.18;;;;;;;10.79;73.96;100350.13;4977009;28;20043;-66
2022/04/25 04:09:44;;;;;;;30.33;12.82;;;;;;;10.68;74.77;100331.50;4976847;28;20054;-66
2022/04/25 04:11:47;;;;;;;25.92;13.20;;;;;;;10.68;74.79;100346.09;4972343;28;20494;-67
2022/04/25 04:14:15;;;;;;;27.92;13.77;;;;;;;10.48;75.82;100349.47;4955291;28;20055;-67
2022/04/25 04:16:43;;;;;;;34.65;14.73;;;;;;;10.53;75.58;100343.78;4943137;28;20065;-67
2022/04/25 04:19:10;;;;;;;28.40;14.02;;;;;;;10.43;76.31;100343.28;4977023;28;20510;-67
2022/04/25 04:21:37;;;;;;;24.92;13.13;;;;;;;10.53;75.70;100341.03;4959164;28;20055;-67
2022/04/25 04:24:05;;;;;;;28.77;13.82;;;;;;;10.53;76.45;100354.81;4968119;28;20086;-67
2022/04/25 04:26:32;;;;;;;28.17;13.55;;;;;;;10.44;76.31;100354.00;4969662;28;20053;-66
2022/04/25 04:28:59;;;;;;;28.35;13.32;;;;;;;10.36;76.85;100362.22;4960130;28;20062;-67
2022/04/25 04:31:27;;;;;;;27.98;14.27;;;;;;;10.34;77.55;100368.06;4976506;28;20062;-67
2022/04/25 04:33:54;;;;;;;31.40;14.48;;;;;;;10.50;76.74;100360.97;4975252;28;20050;-67
2022/04/25 04:36:22;;;;;;;27.10;14.93;;;;;;;10.38;77.42;100373.72;4977082;28;20359;-67
2022/04/25 04:38:49;;;;;;;27.42;14.88;;;;;;;10.37;77.40;100372.13;4977945;28;20359;-67
2022/04/25 04:41:17;;;;;;;27.25;14.75;;;;;;;10.40;77.42;100386.06;4976835;28;20050;-67
2022/04/25 04:43:44;;;;;;;27.50;14.38;;;;;;;10.59;76.69;100372.00;4959545;28;20050;-68
2022/04/25 04:46:11;;;;;;;31.45;15.27;;;;;;;10.90;76.22;100380.94;4976930;28;20085;-65
2022/04/25 04:48:39;;;;;;;29.45;14.93;;;;;;;10.70;75.87;100389.84;4970287;28;20070;-67
2022/04/25 04:51:08;;;;;;;27.40;15.38;;;;;;;10.26;78.04;100396.38;4978041;28;20062;-68
2022/04/25 04:53:35;;;;;;;33.33;16.65;;;;;;;10.47;77.50;100391.09;4959920;28;20054;-65
2022/04/25 04:56:03;;;;;;;34.78;16.10;;;;;;;10.38;78.16;100396.56;4959242;28;20081;-65
2022/04/25 04:58:30;;;;;;;31.50;15.95;;;;;;;10.57;76.72;100393.53;4959458;28;20409;-66
2022/04/25 05:00:58;;;;;;;32.58;16.52;;;;;;;10.52;77.51;100396.44;4957123;28;20046;-64
2022/04/25 05:03:26;;;;;;;33.63;15.57;;;;;;;10.52;77.29;100402.78;4975584;28;20520;-64
2022/04/25 05:05:54;;;;;;;32.97;17.35;;;;;;;10.33;78.49;100399.47;4967668;28;20070;-64
2022/04/25 05:08:21;;;;;;;32.67;16.65;;;;;;;10.41;78.10;100404.19;4959522;28;20046;-65
2022/04/25 05:10:48;;;;;;;33.95;18.83;;;;;;;10.46;77.41;100414.25;4975813;28;20053;-67
2022/04/25 05:13:17;;;;;;;31.88;17.70;;;;;;;10.49;77.57;100413.63;4958887;28;20058;-67
2022/04/25 05:15:44;;;;;;;36.50;18.73;;;;;;;10.47;77.63;100413.94;4974109;28;20047;-66
2022/04/25 05:18:11;;;;;;;40.05;19.55;;;;;;;10.12;79.39;100421.28;4958738;28;20051;-66
2022/04/25 05:20:38;;;;;;;35.65;19.40;;;;;;;10.06;80.38;100416.16;4960104;28;20066;-65
2022/04/25 05:23:10;;;;;;;40.50;21.25;;;;;;;9.96;79.73;100427.47;4943673;28;20047;-67
2022/04/25 05:25:40;;;;;;;40.88;20.38;;;;;;;10.14;79.75;100437.47;4973358;28;20047;-67
2022/04/25 05:28:07;;;;;;;;;;;;;;;10.39;78.67;100431.22;4971433;28;20069;-66
2022/04/25 05:30:35;;;;;;;37.00;21.30;;;;;;;10.41;78.22;100425.44;4969789;28;19922;-64
2022/04/25 05:33:03;;;;;;;39.45;19.98;;;;;;;10.35;78.26;100433.00;4967735;28;20058;-65
2022/04/25 05:35:33;;;;;;;32.92;20.70;;;;;;;10.10;79.81;100441.97;4976649;28;20066;-64
2022/04/25 05:38:01;;;;;;;46.28;21.33;;;;;;;10.23;79.77;100441.06;4976148;28;20498;-67
2022/04/25 05:40:28;;;;;;;36.83;20.73;;;;;;;10.29;78.94;100431.53;4975685;28;20043;-67
2022/04/25 05:42:56;;;;;;;41.42;21.38;;;;;;;10.14;79.73;100448.47;4976061;28;20054;-66
2022/04/25 05:45:24;;;;;;;36.95;21.98;;;;;;;10.13;80.08;100453.16;4972643;28;20061;-66
2022/04/25 05:47:56;;;;;;;43.45;21.83;;;;;;;10.01;80.71;100455.66;4956052;28;20054;-66
2022/04/25 05:53:12;;;;;;;37.58;22.35;;;;;;;9.99;80.55;100455.16;4963286;28;20055;-67
2022/04/25 05:55:41;;;;;;;46.28;23.35;;;;;;;10.07;79.67;100457.16;4975725;28;20054;-67
2022/04/25 05:58:10;;;;;;;36.85;23.08;;;;;;;9.91;81.22;100464.19;4973079;28;20081;-68
2022/04/25 06:00:37;;;;;;;40.15;23.02;;;;;;;9.85;81.11;100467.41;4978934;28;20054;-68
2022/04/25 06:03:04;;;;;;;40.38;23.05;;;;;;;9.86;81.45;100475.31;4972354;28;20046;-66
2022/04/25 06:05:32;;;;;;;36.50;24.45;;;;;;;9.88;81.23;100481.31;4936376;28;20058;-66
2022/04/25 06:07:59;;;;;;;42.35;25.08;;;;;;;9.84;80.94;100490.50;4972469;28;20038;-65
2022/04/25 06:10:27;;;;;;;42.00;25.80;;;;;;;9.92;80.29;100484.25;4974783;28;20058;-65
2022/04/25 06:12:54;;;;;;;45.83;26.48;;;;;;;10.14;78.86;100490.56;4972341;28;20046;-67
2022/04/25 06:15:26;;;;;;;44.45;27.48;;;;;;;9.70;79.94;100489.75;4970970;28;20062;-66
2022/04/25 06:17:55;;;;;;;41.80;27.20;;;;;;;9.80;80.36;100495.00;4968019;28;20054;-64
2022/04/25 06:20:23;;;;;;;46.08;27.92;;;;;;;9.75;80.31;100492.38;4971758;28;20055;-66
2022/04/25 06:23:00;;;;;;;42.47;25.90;;;;;;;10.28;78.96;100490.47;4940235;28;20422;-63
2022/04/25 06:25:29;;;;;;;44.75;27.77;;;;;;;9.94;78.98;100484.75;4936107;28;20062;-68
2022/04/25 06:28:00;;;;;;;40.22;26.45;;;;;;;9.98;79.30;100494.00;4971234;28;20375;-67
2022/04/25 06:30:29;;;;;;;40.92;26.48;;;;;;;10.06;79.07;100494.03;4954207;28;20375;-68
2022/04/25 06:32:57;;;;;;;43.50;25.15;;;;;;;10.43;77.94;100491.97;4972920;28;20063;-62
2022/04/25 06:35:25;;;;;;;42.55;26.33;;;;;;;9.89;78.67;100502.19;4957968;28;20058;-62
2022/04/25 06:37:53;;;;;;;40.25;26.73;;;;;;;10.42;78.52;100499.44;4940746;28;20128;-66
2022/04/25 06:40:21;;;;;;;36.13;23.95;;;;;;;10.77;76.72;100505.88;4956402;28;20062;-69
2022/04/25 06:42:49;;;;;;;44.58;26.95;;;;;;;10.29;76.92;100505.84;4938433;28;20047;-69
2022/04/25 06:45:16;;;;;;;37.08;25.30;;;;;;;10.51;76.51;100502.22;4969675;28;20154;-68
2022/04/25 06:47:44;;;;;;;35.33;25.17;;;;;;;10.46;76.92;100505.13;4971542;28;20050;-70
2022/04/25 06:50:11;;;;;;;39.75;25.70;;;;;;;10.50;77.44;100504.16;4972300;28;20055;-69
2022/04/25 06:52:40;;;;;;;41.92;23.77;;;;;;;10.70;75.87;100511.06;4972861;28;20058;-69
2022/04/25 06:55:07;;;;;;;41.75;23.63;;;;;;;11.16;73.85;100508.56;4973692;28;20058;-66
2022/04/25 06:57:35;;;;;;;39.63;25.08;;;;;;;10.36;75.95;100513.66;4970584;28;20388;-67
2022/04/25 07:00:04;;;;;;;42.80;25.60;;;;;;;10.22;77.17;100516.50;4956207;28;20058;-65
2022/04/25 07:02:51;;;;;;;43.60;26.63;;;;;;;10.11;77.06;100534.44;4955926;28;20066;-65
2022/04/25 07:05:19;;;;;;;47.85;26.98;;;;;;;10.04;78.31;100514.75;4973920;28;20059;-65
2022/04/25 07:07:47;;;;;;;39.65;26.60;;;;;;;10.00;77.73;100519.25;4972972;28;20058;-65
2022/04/25 07:10:14;;;;;;;48.95;26.73;;;;;;;10.31;77.16;100522.03;4973621;28;20059;-65
2022/04/25 07:12:42;;;;;;;39.75;26.67;;;;;;;10.24;76.44;100528.00;4956221;28;20043;-66
2022/04/25 07:15:09;;;;;;;41.10;25.88;;;;;;;10.17;77.06;100522.97;4974322;28;20055;-66
2022/04/25 07:17:36;;;;;;;39.25;25.13;;;;;;;10.28;76.08;100525.44;4973969;28;20058;-66
2022/04/25 07:20:06;;;;;;;43.85;26.90;;;;;;;10.36;75.82;100525.47;4971972;28;20050;-67
2022/04/25 07:30:51;;;;;;;40.13;26.73;;;;;;;10.42;74.43;100538.00;4974662;28;20054;-62
2022/04/25 07:33:18;;;;;;;39.25;26.95;;;;;;;10.66;74.24;100526.56;4957699;28;20058;-62
2022/04/25 07:35:45;;;;;;;37.85;24.70;;;;;;;10.78;73.88;100543.31;4974982;28;20062;-62
2022/04/25 07:38:13;;;;;;;43.40;25.88;;;;;;;10.82;73.92;100541.56;4975600;28;20043;-62
2022/04/25 07:40:41;;;;;;;37.88;25.42;;;;;;;10.59;73.50;100540.81;4972949;28;20062;-65
2022/04/25 07:43:10;;;;;;;40.50;26.85;;;;;;;10.03;76.62;100551.66;4974492;28;20127;-65
2022/04/25 07:45:37;;;;;;;40.30;25.75;;;;;;;10.43;76.14;100547.88;4978092;28;20070;-66
2022/04/25 07:48:05;;;;;;;39.35;24.33;;;;;;;10.85;73.71;100552.75;4975154;28;20054;-65
2022/04/25 07:50:32;;;;;;;36.85;24.75;;;;;;;11.14;71.81;100552.97;4968290;28;20047;-65
2022/04/25 07:52:59;;;;;;;36.20;23.02;;;;;;;11.26;72.38;100550.41;4976098;28;20061;-67
2022/04/25 07:55:27;;;;;;;42.03;23.63;;;;;;;11.64;70.71;100552.56;4978054;28;20050;-61
2022/04/25 07:57:54;;;;;;;35.75;24.67;;;;;;;11.41;70.68;100543.63;4976795;28;20050;-61
2022/04/25 08:00:21;;;;;;;38.40;25.50;;;;;;;10.76;72.96;100560.16;4966618;28;20066;-61
2022/04/25 08:02:49;;;;;;;35.78;24.08;;;;;;;11.00;71.69;100562.53;4955423;28;20057;-61
2022/04/25 08:05:16;;;;;;;41.63;25.67;;;;;;;10.56;73.86;100557.16;4976082;28;20059;-68
2022/04/25 08:07:43;;;;;;;37.65;25.73;;;;;;;10.66;73.68;100562.38;4976727;28;20074;-67
2022/04/25 08:10:11;;;;;;;40.80;25.05;;;;;;;10.85;72.60;100560.19;4976925;28;20371;-66
2022/04/25 08:18:12;;;;;;;36.70;23.15;;;;;;;11.62;70.45;100576.91;4959880;28;20070;-66
2022/04/25 08:20:40;;;;;;;34.78;23.02;;;;;;;11.53;70.06;100573.31;4977083;28;20426;-64
2022/04/25 08:23:10;;;;;;;40.78;25.40;;;;;;;11.31;70.04;100577.81;4971991;28;20055;-61
2022/04/25 08:25:38;;;;;;;33.97;23.27;;;;;;;11.53;70.09;100571.38;4958692;28;20059;-60
2022/04/25 08:28:06;;;;;;;33.70;24.02;;;;;;;11.21;70.46;100574.56;4962146;28;20050;-66
2022/04/25 08:30:34;;;;;;;38.45;23.38;;;;;;;11.41;69.57;100570.38;4958926;28;20058;-62
2022/04/25 08:33:02;;;;;;;37.85;22.48;;;;;;;11.35;70.65;100592.59;4960681;28;20078;-65
2022/04/25 08:35:29;;;;;;;31.23;21.60;;;;;;;11.44;70.16;100589.06;4957650;28;20636;-66
2022/04/25 08:37:57;;;;;;;32.40;23.52;;;;;;;11.49;68.97;100592.44;4976833;28;20415;-67
2022/04/25 08:40:26;;;;;;;31.40;22.48;;;;;;;11.53;69.65;100589.88;4958879;28;20050;-63
2022/04/25 08:42:53;;;;;;;31.38;22.38;;;;;;;11.73;69.43;100592.03;4975936;28;20065;-70
2022/04/25 08:45:22;;;;;;;35.13;23.08;;;;;;;11.75;68.19;100593.31;4938232;28;20054;-66
2022/04/25 08:47:54;;;;;;;31.75;23.10;;;;;;;11.42;69.36;100596.84;4941099;28;20043;-60
2022/04/25 08:50:22;;;;;;;40.38;23.35;;;;;;;11.50;69.32;100598.78;4951527;28;20058;-64
2022/04/25 08:52:50;;;;;;;38.55;23.38;;;;;;;11.64;68.70;100607.75;4975828;28;20051;-66
2022/04/25 08:55:17;;;;;;;29.98;22.35;;;;;;;11.38;69.78;100604.13;4975723;28;20057;-70
2022/04/25 08:57:46;;;;;;;38.30;22.75;;;;;;;11.55;69.14;100602.22;4938447;28;20058;-65
2022/04/25 09:00:15;;;;;;;34.63;21.65;;;;;;;11.76;68.44;100606.00;4974245;28;20043;-67
2022/04/25 09:02:44;;;;;;;;;;;;;;;12.19;66.73;100617.03;4973725;28;20054;-61
2022/04/25 09:05:13;;;;;;;32.13;21.85;;;;;;;11.62;67.73;100613.59;4973539;28;19931;-61
2022/04/25 09:07:42;;;;;;;32.88;21.83;;;;;;;11.54;69.60;100606.09;4976487;28;20054;-61
2022/04/25 09:10:16;;;;;;;29.50;22.10;;;;;;;11.75;68.29;100609.09;4957782;28;20058;-61
2022/04/25 09:12:46;;;;;;;34.47;22.70;;;;;;;11.65;68.51;100609.38;4976321;28;20093;-62
2022/04/25 09:15:19;;;;;;;32.83;20.85;;;;;;;12.11;67.39;100602.09;4973687;28;20050;-67
2022/04/25 09:17:55;;;;;;;29.65;21.30;;;;;;;12.22;66.46;100606.13;4975974;28;20051;-66
2022/04/25 09:20:24;;;;;;;33.40;20.88;;;;;;;11.95;67.99;100603.72;4959091;28;20065;-67
2022/04/25 09:22:52;;;;;;;35.00;22.38;;;;;;;11.78;67.97;100606.50;4973121;28;20150;-68
2022/04/25 09:25:20;;;;;;;29.75;22.42;;;;;;;11.94;66.83;100615.09;4979004;28;20062;-68
2022/04/25 09:28:13;;;;;;;29.27;22.45;;;;;;;11.92;66.81;100615.44;4976210;28;20427;-67
2022/04/25 09:31:11;;;;;;;37.83;23.55;;;;;;;12.22;65.96;100610.88;4974736;28;20059;-67
2022/04/25 09:33:39;;;;;;;36.88;23.25;;;;;;;11.97;67.07;100615.25;4957410;28;20529;-62
2022/04/25 09:36:06;;;;;;;32.78;21.60;;;;;;;12.34;66.55;100622.84;4956514;28;20054;-61
2022/04/25 09:38:35;;;;;;;30.65;21.27;;;;;;;13.00;64.18;100621.38;4976478;28;20066;-61
2022/04/25 09:41:05;;;;;;;32.90;22.27;;;;;;;12.72;64.33;100624.88;4978898;28;20063;-62
2022/04/25 09:43:34;;;;;;;;;;;;;;;12.24;64.63;100625.94;4975639;28;20494;-62
2022/04/25 09:46:08;;;;;;;31.05;23.45;;;;;;;11.79;66.39;100621.09;4974551;28;19944;-61
2022/04/25 09:48:38;;;;;;;32.47;22.63;;;;;;;12.10;66.26;100627.28;4974959;28;20069;-62
2022/04/25 09:51:11;;;;;;;34.40;23.77;;;;;;;12.13;65.05;100623.84;4974923;28;20057;-62
2022/04/25 09:53:52;;;;;;;38.78;23.25;;;;;;;11.91;66.76;100632.28;4974685;28;20062;-62
2022/04/25 09:56:28;;;;;;;29.85;22.08;;;;;;;11.86;66.30;100630.50;4984665;28;20066;-66
2022/04/25 09:59:09;;;;;;;30.80;21.92;;;;;;;11.92;66.14;100637.50;4957736;28;20057;-68
2022/04/25 10:01:39;;;;;;;30.98;21.85;;;;;;;11.77;66.22;100629.69;4951452;28;20039;-67
2022/04/25 10:04:31;;;;;;;31.35;20.45;;;;;;;11.89;65.66;100635.38;4972251;28;20591;-65
2022/04/25 10:07:00;;;;;;;30.35;21.05;;;;;;;12.11;64.82;100635.25;4969966;28;20038;-73
2022/04/25 10:09:30;;;;;;;27.15;20.15;;;;;;;12.20;64.08;100641.53;4947938;28;20051;-62
2022/04/25 10:12:00;;;;;;;30.80;20.35;;;;;;;12.01;64.70;100635.53;4971937;28;20059;-68
2022/04/25 10:14:28;;;;;;;30.33;20.50;;;;;;;12.09;64.68;100636.69;4969449;28;20054;-65
2022/04/25 10:16:56;;;;;;;29.33;21.15;;;;;;;12.16;63.95;100640.59;4952731;28;20047;-64
2022/04/25 10:19:27;;;;;;;31.05;20.50;;;;;;;12.34;63.67;100638.63;4966399;28;20355;-64
2022/04/25 10:21:56;;;;;;;29.20;19.80;;;;;;;12.67;62.78;100633.34;4971439;28;20061;-67
2022/04/25 10:24:24;;;;;;;30.65;19.60;;;;;;;12.63;62.75;100630.44;4955726;28;20067;-68
2022/04/25 10:26:52;;;;;;;30.83;18.38;;;;;;;12.87;61.18;100640.91;4971009;28;20051;-67
2022/04/25 10:29:34;;;;;;;24.25;18.23;;;;;;;12.74;60.36;100628.94;4951981;28;20050;-67
2022/04/25 10:32:04;;;;;;;28.88;18.23;;;;;;;12.79;59.59;100641.78;4953716;28;20054;-67
2022/04/25 10:34:47;;;;;;;20.55;14.43;;;;;;;13.14;57.71;100635.81;4973963;28;20088;-62
2022/04/25 10:37:34;;;;;;;24.88;14.63;;;;;;;13.12;57.44;100640.06;4973745;28;20426;-63
2022/04/25 10:40:13;;;;;;;27.17;17.90;;;;;;;13.01;59.91;100642.34;4970527;28;20758;-62
2022/04/25 10:45:53;;;;;;;26.30;18.52;;;;;;;12.87;61.07;100627.91;4957665;28;20050;-63
2022/04/25 10:48:21;;;;;;;27.30;18.27;;;;;;;12.46;62.11;100633.25;4966633;28;20047;-61
2022/04/25 10:51:12;;;;;;;26.92;18.48;;;;;;;12.91;62.07;100625.31;4956260;28;20081;-61
2022/04/25 10:54:01;;;;;;;27.58;17.10;;;;;;;13.12;58.72;100645.59;4969350;28;20055;-62
2022/04/25 10:56:30;;;;;;;25.48;16.30;;;;;;;13.21;57.81;100638.88;4969564;28;20067;-62
2022/04/25 10:59:26;;;;;;;28.55;16.00;;;;;;;13.38;55.19;100638.78;4974450;28;20065;-62
2022/04/25 11:01:58;;;;;;;21.63;14.30;;;;;;;13.37;55.48;100642.69;4972961;28;20051;-62
2022/04/25 11:04:26;;;;;;;20.83;13.65;;;;;;;13.24;55.03;100640.16;4956840;28;20050;-62
2022/04/25 11:07:20;;;;;;;18.55;12.85;;;;;;;13.35;55.06;100636.66;4974540;28;20062;-62
2022/04/25 11:09:47;;;;;;;23.67;13.85;;;;;;;13.13;54.10;100638.91;4972294;28;20509;-63
2022/04/25 11:12:15;;;;;;;21.85;14.23;;;;;;;13.21;55.57;100640.81;4973405;28;20475;-62
2022/04/25 11:15:00;;;;;;;23.63;14.27;;;;;;;13.26;56.00;100637.88;4962152;28;20070;-62
2022/04/25 11:17:28;;;;;;;22.50;14.10;;;;;;;13.17;56.36;100640.69;4975339;28;20058;-62
2022/04/25 11:19:56;;;;;;;22.08;13.77;;;;;;;13.48;54.80;100638.41;4961845;28;20047;-63
2022/04/25 11:22:36;;;;;;;17.08;11.65;;;;;;;13.80;52.72;100641.59;4976212;28;20533;-63
2022/04/25 11:25:36;;;;;;;17.80;11.60;;;;;;;13.75;52.52;100637.09;4967372;28;20085;-62
2022/04/25 11:28:10;;;;;;;25.45;14.45;;;;;;;14.22;51.22;100641.28;4931105;28;20058;-62
2022/04/25 11:30:39;;;;;;;18.33;11.57;;;;;;;13.73;49.52;100633.03;4960807;28;20042;-68
2022/04/25 11:33:12;;;;;;;16.23;10.13;;;;;;;14.00;49.44;100644.38;4973386;28;20050;-68
2022/04/25 11:35:42;;;;;;;20.45;11.68;;;;;;;14.25;49.58;100643.38;4978254;28;20058;-63
2022/04/25 11:38:11;;;;;;;18.27;10.65;;;;;;;14.20;47.77;100645.53;4977871;28;20055;-61
2022/04/25 11:40:40;;;;;;;15.00;9.75;;;;;;;13.83;47.53;100641.75;4964880;28;20042;-62
2022/04/25 11:43:07;;;;;;;19.73;10.87;;;;;;;13.75;48.21;100641.81;4969970;28;20054;-62
2022/04/25 11:45:34;;;;;;;23.13;10.45;;;;;;;13.89;48.24;100639.59;4976397;28;20074;-69
2022/04/25 11:48:02;;;;;;;14.40;9.80;;;;;;;14.47;47.27;100643.00;4943055;28;20070;-69
2022/04/25 11:50:29;;;;;;;14.70;9.90;;;;;;;14.55;47.05;100636.59;4961321;28;20047;-70